Time;durP1;ratioP1;P1;durP2;ratioP2;P2;SDS_P1;SDS_P2;PMS_P1;PMS_P2;Temp;Humidity;BMP_temperature;BMP_pressure;BME280_temperature;BME280_humidity;BME280_pressure;Samples;Min_cycle;Max_cycle;Signal;HPM_P1;HPM_P2
2023/03/27 00:01:25;;;;;;;2.47;1.93;;;;;;;6.35;100.00;97070.53;5071075;28;20203;-78
2023/03/27 00:03:52;;;;;;;2.00;1.80;;;;;;;6.38;100.00;97065.06;5071691;28;20301;-78
2023/03/27 00:06:20;;;;;;;2.00;1.90;;;;;;;6.35;100.00;97070.53;5071555;28;20612;-78
2023/03/27 00:08:49;;;;;;;2.33;2.10;;;;;;;6.35;100.00;97061.81;5071399;28;20657;-78
2023/03/27 00:11:17;;;;;;;2.83;1.97;;;;;;;6.33;100.00;97072.41;5071657;28;20208;-78
2023/03/27 00:13:44;;;;;;;1.83;1.73;;;;;;;6.35;100.00;97069.69;5071541;28;20293;-78
2023/03/27 00:16:12;;;;;;;2.03;1.83;;;;;;;6.34;100.00;97084.59;5071705;28;20231;-78
2023/03/27 00:18:38;;;;;;;3.20;1.90;;;;;;;6.31;100.00;97082.19;5071693;28;20578;-78
2023/03/27 00:21:05;;;;;;;2.70;1.63;;;;;;;6.27;100.00;97088.59;5071122;28;20211;-77
2023/03/27 00:23:32;;;;;;;1.77;1.67;;;;;;;6.27;100.00;97096.44;5071529;28;20217;-78
2023/03/27 00:25:59;;;;;;;1.50;1.40;;;;;;;6.28;100.00;97103.38;5071211;28;20214;-78
2023/03/27 00:28:27;;;;;;;1.97;1.30;;;;;;;6.30;100.00;97105.91;5071596;28;20207;-77
2023/03/27 00:30:57;;;;;;;1.67;1.57;;;;;;;6.19;100.00;97111.03;5071089;28;20753;-77
2023/03/27 00:33:24;;;;;;;1.70;1.47;;;;;;;6.23;100.00;97121.22;5071317;28;20244;-78
2023/03/27 00:35:51;;;;;;;1.60;1.47;;;;;;;6.22;100.00;97118.72;5071177;28;20204;-78
2023/03/27 00:38:18;;;;;;;1.50;1.40;;;;;;;6.19;100.00;97132.88;5071046;28;20327;-78
2023/03/27 00:40:46;;;;;;;1.40;1.30;;;;;;;6.14;100.00;97132.34;5070812;28;20640;-77
2023/03/27 00:43:24;;;;;;;1.60;1.50;;;;;;;6.11;100.00;97150.88;5071214;28;20207;-78
2023/03/27 00:45:56;;;;;;;1.50;1.40;;;;;;;6.05;100.00;97148.69;5071139;28;20564;-77
2023/03/27 00:48:25;;;;;;;0.80;0.80;;;;;;;5.98;100.00;97157.91;5071020;28;20215;-77
2023/03/27 00:50:52;;;;;;;0.77;0.77;;;;;;;5.92;100.00;97163.53;5070684;28;20591;-77
2023/03/27 00:53:23;;;;;;;1.03;0.63;;;;;;;5.87;100.00;97170.06;5070946;28;20216;-77
2023/03/27 00:55:52;;;;;;;0.60;0.60;;;;;;;5.78;100.00;97170.59;5071179;28;20230;-78
2023/03/27 00:58:22;;;;;;;0.70;0.70;;;;;;;5.70;100.00;97175.50;5070999;28;20206;-78
2023/03/27 01:00:52;;;;;;;0.80;0.80;;;;;;;5.68;100.00;97172.97;5067669;28;20221;-77
2023/03/27 01:03:20;;;;;;;0.53;0.53;;;;;;;5.64;100.00;97175.91;5069862;28;20207;-78
2023/03/27 01:05:49;;;;;;;1.10;1.00;;;;;;;5.63;100.00;97182.91;5070663;28;20225;-77
2023/03/27 01:08:17;;;;;;;1.43;0.87;;;;;;;5.59;100.00;97201.56;5071087;28;20252;-77
2023/03/27 01:10:53;;;;;;;1.10;0.90;;;;;;;5.64;100.00;97196.88;5073988;28;20208;-77
2023/03/27 01:13:35;;;;;;;0.97;0.97;;;;;;;5.60;100.00;97204.09;5073796;28;20230;-77
2023/03/27 01:16:09;;;;;;;1.20;1.00;;;;;;;5.58;100.00;97215.63;5077934;28;20299;-77
2023/03/27 01:18:45;;;;;;;1.10;0.97;;;;;;;5.55;100.00;97211.41;5078704;28;20219;-77
2023/03/27 01:21:41;;;;;;;1.10;1.00;;;;;;;5.58;100.00;97226.09;5079944;28;20206;-77
2023/03/27 01:24:52;;;;;;;0.83;0.83;;;;;;;5.53;100.00;97218.53;5075678;28;20212;-77
2023/03/27 01:27:21;;;;;;;0.97;0.97;;;;;;;5.52;100.00;97224.72;5074369;28;20238;-77
2023/03/27 01:30:01;;;;;;;1.00;1.00;;;;;;;5.49;100.00;97210.97;5074306;28;20230;-76
2023/03/27 01:32:53;;;;;;;1.03;0.80;;;;;;;5.48;100.00;97238.94;5074545;28;20211;-76
2023/03/27 01:35:54;;;;;;;1.77;0.90;;;;;;;5.41;100.00;97235.03;5074596;28;20205;-76
2023/03/27 01:38:47;;;;;;;1.20;1.10;;;;;;;5.31;100.00;97241.78;5074259;28;20208;-76
2023/03/27 01:41:24;;;;;;;1.17;0.93;;;;;;;5.32;100.00;97248.69;5074130;28;20216;-79
2023/03/27 01:43:56;;;;;;;3.90;1.33;;;;;;;5.24;100.00;97248.34;5074285;28;20706;-78
2023/03/27 01:46:30;;;;;;;1.00;0.90;;;;;;;5.21;100.00;97263.41;5074240;28;20264;-77
2023/03/27 01:49:01;;;;;;;1.30;1.20;;;;;;;5.18;100.00;97269.69;5074057;28;20629;-77
2023/03/27 01:51:32;;;;;;;1.43;1.33;;;;;;;5.08;100.00;97271.16;5073863;28;20209;-77
2023/03/27 01:54:04;;;;;;;1.57;1.20;;;;;;;5.11;100.00;97284.09;5074069;28;20217;-77
2023/03/27 01:56:37;;;;;;;1.60;1.30;;;;;;;5.02;100.00;97289.84;5074204;28;20615;-77
2023/03/27 01:59:10;;;;;;;1.40;1.30;;;;;;;4.93;100.00;97300.91;5073845;28;20213;-77
2023/03/27 02:01:39;;;;;;;1.80;1.60;;;;;;;4.91;100.00;97307.16;5074010;28;20555;-79
2023/03/27 02:04:12;;;;;;;2.30;1.43;;;;;;;4.87;100.00;97316.97;5074079;28;20214;-77
2023/03/27 02:06:42;;;;;;;1.57;1.30;;;;;;;4.85;100.00;97318.00;5073961;28;20256;-79
2023/03/27 02:09:14;;;;;;;2.23;1.40;;;;;;;4.83;100.00;97323.31;5073722;28;20209;-77
2023/03/27 02:11:47;;;;;;;2.43;1.60;;;;;;;4.77;100.00;97331.53;5073892;28;20342;-77
2023/03/27 02:14:20;;;;;;;1.73;1.40;;;;;;;4.78;100.00;97335.84;5073614;28;20257;-79
2023/03/27 02:16:52;;;;;;;2.50;2.00;;;;;;;4.78;100.00;97343.72;5073888;28;20234;-78
2023/03/27 02:19:23;;;;;;;1.63;1.47;;;;;;;4.77;100.00;97352.47;5073363;28;20213;-77
2023/03/27 02:21:50;;;;;;;2.83;1.60;;;;;;;4.79;100.00;97355.00;5073887;28;20543;-77
2023/03/27 02:24:17;;;;;;;2.03;1.60;;;;;;;4.75;100.00;97359.59;5073530;28;20218;-78
2023/03/27 02:26:46;;;;;;;3.73;2.37;;;;;;;4.68;100.00;97380.97;5073261;28;20610;-77
2023/03/27 02:29:29;;;;;;;6.23;3.43;;;;;;;4.63;100.00;97381.22;5073536;28;20211;-78
2023/03/27 02:32:07;;;;;;;8.90;4.47;;;;;;;4.60;100.00;97386.66;5073631;28;20234;-78
2023/03/27 02:34:55;;;;;;;11.20;3.93;;;;;;;4.47;100.00;97400.50;5073912;28;20201;-77
2023/03/27 02:37:31;;;;;;;10.27;4.50;;;;;;;4.40;100.00;97400.00;5073235;28;20269;-77
2023/03/27 02:40:05;;;;;;;9.03;4.50;;;;;;;4.33;100.00;97414.34;5073353;28;20213;-77
2023/03/27 02:42:41;;;;;;;7.23;4.33;;;;;;;4.25;100.00;97420.94;5073141;28;20209;-77
2023/03/27 02:45:16;;;;;;;8.83;4.67;;;;;;;4.21;100.00;97430.72;5073128;28;20209;-77
2023/03/27 02:47:46;;;;;;;9.50;4.60;;;;;;;4.18;100.00;97430.91;5072738;28;20246;-77
2023/03/27 02:50:18;;;;;;;9.00;4.27;;;;;;;4.14;100.00;97441.59;5073047;28;20208;-76
2023/03/27 02:52:50;;;;;;;7.43;4.87;;;;;;;4.08;100.00;97441.94;5073069;28;20212;-77
2023/03/27 02:55:20;;;;;;;9.90;4.60;;;;;;;4.02;100.00;97456.19;5073120;28;20221;-76
2023/03/27 02:57:53;;;;;;;7.73;4.50;;;;;;;3.94;100.00;97455.78;5072830;28;20227;-77
2023/03/27 03:00:24;;;;;;;11.50;4.83;;;;;;;3.89;100.00;97468.25;5072482;28;20217;-76
2023/03/27 03:02:57;;;;;;;8.10;4.60;;;;;;;3.86;100.00;97476.22;5072818;28;20299;-76
2023/03/27 03:05:25;;;;;;;6.70;3.97;;;;;;;3.81;100.00;97480.88;5072937;28;20215;-76
2023/03/27 03:07:53;;;;;;;10.23;4.97;;;;;;;3.75;100.00;97489.03;5072490;28;20244;-77
2023/03/27 03:10:20;;;;;;;10.97;4.97;;;;;;;3.74;100.00;97491.72;5072307;28;20270;-76
2023/03/27 03:12:47;;;;;;;9.33;4.67;;;;;;;3.71;100.00;97497.97;5072398;28;20204;-76
2023/03/27 03:15:14;;;;;;;9.23;4.40;;;;;;;3.75;100.00;97504.72;5072731;28;20592;-77
2023/03/27 03:17:41;;;;;;;10.80;4.70;;;;;;;3.71;100.00;97515.38;5072464;28;20239;-77
2023/03/27 03:20:09;;;;;;;8.50;5.17;;;;;;;3.66;100.00;97510.41;5072317;28;20216;-76
2023/03/27 03:22:36;;;;;;;12.37;4.83;;;;;;;3.61;100.00;97528.09;5072388;28;20274;-76
2023/03/27 03:25:03;;;;;;;9.00;4.57;;;;;;;3.62;100.00;97524.53;5072302;28;20212;-77
2023/03/27 03:27:30;;;;;;;10.43;5.60;;;;;;;3.60;100.00;97531.63;5072003;28;20277;-77
2023/03/27 03:30:00;;;;;;;11.60;4.53;;;;;;;3.61;100.00;97541.16;5071892;28;20211;-77
2023/03/27 03:32:29;;;;;;;14.67;5.73;;;;;;;3.57;100.00;97542.25;5072394;28;20203;-77
2023/03/27 03:34:56;;;;;;;10.63;5.10;;;;;;;3.54;100.00;97550.22;5072246;28;20222;-77
2023/03/27 03:37:27;;;;;;;13.30;5.33;;;;;;;3.56;100.00;97561.44;5071352;28;20674;-77
2023/03/27 03:39:54;;;;;;;9.50;4.70;;;;;;;3.61;100.00;97561.22;5071669;28;20625;-77
2023/03/27 03:42:20;;;;;;;8.13;4.67;;;;;;;3.52;100.00;97567.75;5072231;28;20214;-77
2023/03/27 03:44:47;;;;;;;8.70;4.57;;;;;;;3.47;100.00;97580.19;5072157;28;20622;-77
2023/03/27 03:47:14;;;;;;;12.80;4.90;;;;;;;3.49;100.00;97590.56;5071954;28;20236;-77
2023/03/27 03:49:41;;;;;;;11.97;4.73;;;;;;;3.45;100.00;97589.88;5071801;28;20214;-77
2023/03/27 03:52:07;;;;;;;15.03;4.97;;;;;;;3.46;100.00;97603.78;5071973;28;20621;-77
2023/03/27 03:54:37;;;;;;;7.37;4.83;;;;;;;3.46;100.00;97606.38;5072024;28;20216;-77
2023/03/27 03:57:04;;;;;;;8.90;5.03;;;;;;;3.45;100.00;97616.00;5072172;28;20229;-77
2023/03/27 03:59:30;;;;;;;11.40;5.03;;;;;;;3.43;100.00;97630.06;5071675;28;20216;-77
2023/03/27 04:01:56;;;;;;;9.53;4.13;;;;;;;3.43;100.00;97632.66;5071871;28;20219;-77
2023/03/27 04:04:24;;;;;;;10.03;4.37;;;;;;;3.37;100.00;97633.78;5071650;28;20207;-77
2023/03/27 04:06:51;;;;;;;8.73;4.30;;;;;;;3.28;100.00;97639.47;5071324;28;20742;-77
2023/03/27 04:09:18;;;;;;;11.53;4.23;;;;;;;3.22;100.00;97655.44;5071252;28;20212;-77
2023/03/27 04:11:45;;;;;;;10.10;4.40;;;;;;;3.18;100.00;97668.72;5071503;28;20302;-77
2023/03/27 04:14:12;;;;;;;14.20;4.87;;;;;;;3.14;100.00;97675.84;5071612;28;20247;-77
2023/03/27 04:16:38;;;;;;;11.03;4.20;;;;;;;3.17;100.00;97682.69;5071425;28;20246;-77
2023/03/27 04:19:05;;;;;;;10.53;4.40;;;;;;;3.16;100.00;97696.66;5071369;28;20225;-77
2023/03/27 04:21:33;;;;;;;12.03;3.90;;;;;;;3.15;100.00;97690.59;5071183;28;20583;-77
2023/03/27 04:24:01;;;;;;;11.13;3.83;;;;;;;3.09;100.00;97690.88;5071597;28;20211;-76
2023/03/27 04:26:28;;;;;;;9.20;3.10;;;;;;;3.00;100.00;97704.34;5071354;28;20725;-76
2023/03/27 04:28:54;;;;;;;7.63;3.13;;;;;;;2.99;100.00;97710.50;5071370;28;20271;-76
2023/03/27 04:31:21;;;;;;;9.80;3.77;;;;;;;2.93;100.00;97715.16;5071139;28;20384;-77
2023/03/27 04:33:50;;;;;;;8.50;3.40;;;;;;;2.93;100.00;97713.38;5071291;28;20208;-77
2023/03/27 04:36:18;;;;;;;7.97;3.30;;;;;;;2.88;100.00;97727.56;5070982;28;20228;-77
2023/03/27 04:38:48;;;;;;;10.10;2.90;;;;;;;2.85;100.00;97732.91;5071496;28;20208;-76
2023/03/27 04:41:16;;;;;;;7.27;2.53;;;;;;;2.82;100.00;97731.28;5070894;28;20302;-77
2023/03/27 04:43:44;;;;;;;5.87;3.07;;;;;;;2.83;100.00;97735.59;5071170;28;20306;-76
2023/03/27 04:46:11;;;;;;;12.10;2.93;;;;;;;2.75;100.00;97748.13;5070964;28;20368;-75
2023/03/27 04:48:38;;;;;;;7.77;2.63;;;;;;;2.74;100.00;97741.22;5070834;28;20238;-77
2023/03/27 04:51:05;;;;;;;6.93;2.30;;;;;;;2.69;100.00;97764.06;5070752;28;20212;-76
2023/03/27 04:53:34;;;;;;;9.17;3.00;;;;;;;2.68;100.00;97777.16;5071146;28;20229;-78
2023/03/27 04:56:02;;;;;;;5.07;2.57;;;;;;;2.70;100.00;97775.34;5070839;28;20212;-77
2023/03/27 04:58:31;;;;;;;7.13;2.50;;;;;;;2.71;100.00;97777.91;5071054;28;20209;-77
2023/03/27 05:00:57;;;;;;;7.37;2.63;;;;;;;2.69;100.00;97787.53;5070680;28;20685;-76
2023/03/27 05:03:27;;;;;;;9.70;2.73;;;;;;;2.63;100.00;97795.63;5071356;28;20216;-77
2023/03/27 05:05:53;;;;;;;6.90;2.30;;;;;;;2.57;100.00;97790.66;5071043;28;20215;-76
2023/03/27 05:08:20;;;;;;;7.67;2.63;;;;;;;2.47;100.00;97799.81;5071037;28;20232;-76
2023/03/27 05:10:46;;;;;;;7.73;2.30;;;;;;;2.51;100.00;97805.75;5070836;28;20215;-77
2023/03/27 05:13:14;;;;;;;8.10;3.03;;;;;;;2.50;100.00;97814.50;5070870;28;20701;-76
2023/03/27 05:15:41;;;;;;;9.02;2.70;;;;;;;2.49;100.00;97818.00;5068762;28;20477;-76
2023/03/27 05:18:07;;;;;;;11.13;2.90;;;;;;;2.44;100.00;97826.03;5068781;28;20246;-77
2023/03/27 05:20:34;;;;;;;8.80;2.53;;;;;;;2.37;100.00;97845.44;5070131;28;20209;-77
2023/03/27 05:23:01;;;;;;;8.23;2.57;;;;;;;2.40;100.00;97850.50;5070820;28;20214;-78
2023/03/27 05:25:32;;;;;;;5.10;2.20;;;;;;;2.41;100.00;97857.47;5070795;28;20230;-76
2023/03/27 05:27:59;;;;;;;5.17;2.23;;;;;;;2.38;100.00;97857.56;5070489;28;20254;-76
2023/03/27 05:30:28;;;;;;;6.33;2.20;;;;;;;2.36;100.00;97868.97;5070368;28;20209;-76
2023/03/27 05:32:57;;;;;;;7.97;2.40;;;;;;;2.33;100.00;97875.16;5070918;28;20204;-76
2023/03/27 05:35:26;;;;;;;10.77;2.33;;;;;;;2.34;100.00;97887.28;5070721;28;20208;-76
2023/03/27 05:37:54;;;;;;;7.57;1.90;;;;;;;2.36;100.00;97901.13;5072691;22;20238;-75
2023/03/27 05:40:23;;;;;;;8.90;2.20;;;;;;;2.38;100.00;97898.47;5049923;28;20213;-76
2023/03/27 05:42:51;;;;;;;5.50;2.60;;;;;;;2.35;100.00;97894.22;5050769;28;20278;-75
2023/03/27 05:45:18;;;;;;;5.43;2.37;;;;;;;2.30;100.00;97901.38;5050979;28;20208;-76
2023/03/27 05:47:48;;;;;;;6.50;2.30;;;;;;;2.34;99.71;97900.31;5050630;28;20230;-75
2023/03/27 05:50:16;;;;;;;3.97;2.07;;;;;;;2.37;100.00;97901.94;5050362;28;20691;-75
2023/03/27 05:52:43;;;;;;;9.07;2.23;;;;;;;2.31;98.21;97908.28;5050804;28;20239;-75
2023/03/27 05:55:10;;;;;;;6.77;2.20;;;;;;;2.39;99.34;97911.41;5050539;28;20216;-76
2023/03/27 05:57:38;;;;;;;7.13;2.00;;;;;;;2.38;98.51;97914.94;5050718;28;20229;-76
2023/03/27 06:00:09;;;;;;;4.27;1.93;;;;;;;2.36;97.18;97919.38;5051248;28;20215;-76
2023/03/27 06:02:36;;;;;;;6.13;2.17;;;;;;;2.33;97.69;97921.25;5054243;28;20215;-76
2023/03/27 06:05:04;;;;;;;5.83;1.80;;;;;;;2.36;97.42;97931.56;5054304;28;20600;-74
2023/03/27 06:07:31;;;;;;;3.73;1.63;;;;;;;2.38;96.52;97938.41;5054330;28;20230;-76
2023/03/27 06:09:57;;;;;;;10.47;2.37;;;;;;;2.46;96.07;97938.94;5055558;28;20208;-76
2023/03/27 06:12:24;;;;;;;8.40;2.27;;;;;;;2.48;96.34;97950.19;5058476;28;20216;-76
2023/03/27 06:14:51;;;;;;;5.90;1.90;;;;;;;2.50;95.08;97955.34;5056177;28;20209;-76
2023/03/27 06:17:18;;;;;;;8.70;2.33;;;;;;;2.49;94.07;97964.91;5054993;28;20306;-76
2023/03/27 06:19:44;;;;;;;7.40;2.00;;;;;;;2.38;93.67;97964.47;5053618;28;20241;-77
2023/03/27 06:22:12;;;;;;;9.47;1.83;;;;;;;2.35;92.85;97982.00;5053969;28;20222;-76
2023/03/27 06:24:39;;;;;;;6.27;1.90;;;;;;;2.42;93.95;97986.94;5053840;28;20209;-76
2023/03/27 06:27:05;;;;;;;6.83;2.23;;;;;;;2.41;92.83;97989.59;5053863;28;20236;-77
2023/03/27 06:29:32;;;;;;;8.00;1.93;;;;;;;2.45;94.89;98010.28;5053729;28;20204;-76
2023/03/27 06:32:00;;;;;;;3.70;2.20;;;;;;;2.47;92.71;98008.47;5053683;28;20214;-76
2023/03/27 06:34:27;;;;;;;6.90;2.40;;;;;;;2.56;92.81;98017.69;5053696;28;20215;-77
2023/03/27 06:36:53;;;;;;;6.87;1.77;;;;;;;2.58;91.06;98021.91;5053371;28;20240;-76
2023/03/27 06:39:21;;;;;;;7.13;2.37;;;;;;;2.55;90.08;98011.63;5053189;28;20566;-77
2023/03/27 06:41:48;;;;;;;5.20;1.80;;;;;;;2.54;90.39;98025.56;5052827;28;20228;-76
2023/03/27 06:44:18;;;;;;;3.53;1.40;;;;;;;2.48;90.68;98036.25;5051174;28;20242;-76
2023/03/27 06:46:44;;;;;;;7.20;2.10;;;;;;;2.48;92.17;98041.47;5052333;28;20237;-76
2023/03/27 06:49:11;;;;;;;4.47;2.03;;;;;;;2.52;89.55;98045.63;5053142;28;20211;-77
2023/03/27 06:51:37;;;;;;;5.97;1.90;;;;;;;2.67;90.70;98047.66;5051583;28;20603;-75
2023/03/27 06:54:04;;;;;;;7.40;1.87;;;;;;;2.72;90.05;98045.72;5051362;28;20270;-76
2023/03/27 06:56:32;;;;;;;3.50;1.67;;;;;;;2.93;89.52;98065.75;5053240;28;20210;-76
2023/03/27 06:58:58;;;;;;;8.10;2.03;;;;;;;3.04;86.96;98047.88;5052528;28;20237;-76
2023/03/27 07:01:25;;;;;;;5.20;1.83;;;;;;;3.04;85.73;98058.34;5050367;28;20216;-76
2023/03/27 07:03:52;;;;;;;7.93;2.20;;;;;;;3.08;85.16;98052.09;5052983;28;20218;-76
2023/03/27 07:06:19;;;;;;;6.13;2.00;;;;;;;2.99;85.21;98070.72;5053205;28;20227;-76
2023/03/27 07:08:46;;;;;;;4.70;1.80;;;;;;;2.92;84.73;98074.50;5050876;28;20556;-76
2023/03/27 07:11:12;;;;;;;9.60;2.10;;;;;;;2.94;85.65;98072.66;5051022;28;20269;-76
2023/03/27 07:13:41;;;;;;;7.67;2.37;;;;;;;2.96;86.86;98086.50;5052572;28;20215;-77
2023/03/27 07:16:09;;;;;;;7.37;1.90;;;;;;;2.98;86.44;98084.69;5051507;28;20214;-77
2023/03/27 07:18:36;;;;;;;10.13;1.90;;;;;;;3.09;86.20;98098.16;5050620;28;20576;-76
2023/03/27 07:21:02;;;;;;;8.63;2.07;;;;;;;3.24;82.92;98081.03;5052857;28;20212;-76
2023/03/27 07:23:29;;;;;;;6.20;2.03;;;;;;;3.22;82.14;98086.31;5052834;28;20214;-76
2023/03/27 07:25:57;;;;;;;6.50;1.80;;;;;;;3.13;81.69;98091.88;5052820;28;20212;-75
2023/03/27 07:28:24;;;;;;;5.10;2.03;;;;;;;3.11;81.02;98085.88;5052624;28;20228;-76
2023/03/27 07:30:52;;;;;;;6.57;2.73;;;;;;;3.23;81.80;98101.06;5052449;28;20300;-76
2023/03/27 07:33:19;;;;;;;3.67;1.60;;;;;;;3.32;79.39;98095.47;5052491;28;20653;-76
2023/03/27 07:35:47;;;;;;;4.80;1.63;;;;;;;3.38;79.94;98108.28;5052660;28;20200;-76
2023/03/27 07:38:14;;;;;;;7.60;1.97;;;;;;;3.44;80.07;98115.00;5052262;28;20739;-76
2023/03/27 07:40:42;;;;;;;4.13;1.40;;;;;;;3.30;77.90;98097.28;5051865;28;20241;-76
2023/03/27 07:43:09;;;;;;;3.40;1.37;;;;;;;3.22;77.94;98108.94;5052438;28;20256;-77
2023/03/27 07:45:36;;;;;;;5.07;1.63;;;;;;;3.26;76.58;98103.56;5052265;28;20592;-77
2023/03/27 07:48:08;;;;;;;5.90;1.57;;;;;;;3.34;75.76;98104.09;5052578;28;20234;-77
2023/03/27 07:50:34;;;;;;;6.23;1.70;;;;;;;3.32;75.72;98124.19;5051956;28;20214;-76
2023/03/27 07:53:01;;;;;;;5.30;1.60;;;;;;;3.29;77.50;98137.38;5052458;28;20603;-77
2023/03/27 07:55:29;;;;;;;4.67;1.70;;;;;;;3.32;77.21;98139.88;5052164;28;20208;-76
2023/03/27 07:57:55;;;;;;;5.20;1.83;;;;;;;3.28;75.38;98135.69;5052082;28;20251;-76
2023/03/27 08:00:23;;;;;;;4.90;1.60;;;;;;;3.28;74.70;98145.25;5051969;28;20443;-77
2023/03/27 08:02:50;;;;;;;2.57;1.57;;;;;;;3.33;75.93;98143.31;5052292;28;20215;-80
2023/03/27 08:05:18;;;;;;;3.43;1.60;;;;;;;3.27;75.29;98149.66;5051876;28;20299;-75
2023/03/27 08:07:46;;;;;;;6.20;1.50;;;;;;;3.28;76.84;98156.56;5051841;28;20732;-76
2023/03/27 08:10:12;;;;;;;2.63;1.30;;;;;;;3.36;76.30;98175.38;5051569;28;20270;-76
2023/03/27 08:12:39;;;;;;;2.83;1.47;;;;;;;3.49;76.88;98180.97;5051863;28;20606;-77
2023/03/27 08:15:08;;;;;;;3.13;1.57;;;;;;;3.64;74.15;98169.88;5051770;28;20218;-77
2023/03/27 08:17:35;;;;;;;6.83;1.97;;;;;;;3.80;75.98;98192.72;5051115;28;20267;-76
2023/03/27 08:20:08;;;;;;;5.67;2.10;;;;;;;3.86;73.08;98176.78;5049198;28;20228;-77
2023/03/27 08:22:37;;;;;;;4.00;1.67;;;;;;;4.00;75.14;98189.28;5049265;28;20208;-77
2023/03/27 08:25:05;;;;;;;2.97;1.97;;;;;;;4.04;71.54;98181.22;5051760;28;20215;-76
2023/03/27 08:27:32;;;;;;;5.10;1.80;;;;;;;4.09;71.32;98181.06;5051500;28;20232;-76
2023/03/27 08:29:58;;;;;;;5.73;1.80;;;;;;;4.22;72.30;98193.50;5051498;28;20558;-77
2023/03/27 08:32:25;;;;;;;3.83;1.33;;;;;;;4.25;70.51;98196.03;5051730;28;20608;-78
2023/03/27 08:34:51;;;;;;;4.07;1.33;;;;;;;4.34;70.97;98190.38;5049722;28;20709;-77
2023/03/27 08:37:18;;;;;;;1.87;1.30;;;;;;;4.34;69.47;98190.38;5050497;28;20243;-76
2023/03/27 08:39:45;;;;;;;5.23;1.40;;;;;;;4.47;68.78;98188.09;5049788;28;20256;-77
2023/03/27 08:42:17;;;;;;;5.93;1.60;;;;;;;4.52;68.44;98193.97;5050545;28;20215;-77
2023/03/27 08:44:44;;;;;;;4.03;1.43;;;;;;;4.47;66.61;98186.28;5049430;28;20214;-77
2023/03/27 08:47:17;;;;;;;5.03;1.70;;;;;;;4.48;66.24;98187.16;5050276;28;20252;-76
2023/03/27 08:49:49;;;;;;;6.05;2.00;;;;;;;4.64;66.11;98202.09;5050316;28;20428;-75
2023/03/27 08:52:18;;;;;;;4.43;1.67;;;;;;;4.66;65.50;98194.19;5051134;28;20209;-77
2023/03/27 08:54:52;;;;;;;5.40;1.50;;;;;;;4.61;65.76;98198.78;5051187;28;20627;-78
2023/03/27 08:57:20;;;;;;;4.37;1.33;;;;;;;4.56;65.16;98204.22;5051182;28;20766;-76
2023/03/27 08:59:47;;;;;;;5.77;1.53;;;;;;;4.65;65.08;98205.59;5050712;28;20239;-77
2023/03/27 09:02:23;;;;;;;5.37;1.77;;;;;;;4.71;64.65;98205.31;5051283;28;20213;-76
2023/03/27 09:04:58;;;;;;;3.10;1.50;;;;;;;4.88;64.05;98219.34;5051304;28;20664;-76
2023/03/27 09:07:33;;;;;;;6.73;1.90;;;;;;;4.82;63.23;98214.38;5051503;28;20235;-76
2023/03/27 09:10:06;;;;;;;4.10;1.50;;;;;;;4.80;63.68;98221.47;5051160;28;20211;-76
2023/03/27 09:12:44;;;;;;;2.73;1.53;;;;;;;4.74;65.21;98237.44;5051605;28;20214;-76
2023/03/27 09:15:13;;;;;;;7.17;1.63;;;;;;;4.79;62.52;98208.44;5051449;28;20736;-77
2023/03/27 09:17:46;;;;;;;4.13;1.40;;;;;;;4.89;63.09;98225.44;5051427;28;20730;-76
2023/03/27 09:20:19;;;;;;;5.00;1.50;;;;;;;5.07;63.88;98230.66;5051082;28;20234;-76
2023/03/27 09:22:51;;;;;;;7.30;1.50;;;;;;;5.12;62.04;98212.16;5051725;28;20203;-76
2023/03/27 09:25:23;;;;;;;5.13;1.50;;;;;;;5.15;61.84;98217.22;5051639;28;20247;-76
2023/03/27 09:27:58;;;;;;;5.10;1.67;;;;;;;5.28;60.73;98232.31;5050948;28;20231;-76
2023/03/27 09:30:28;;;;;;;6.00;1.53;;;;;;;5.27;62.00;98235.00;5050847;28;20210;-79
2023/03/27 09:32:57;;;;;;;2.93;1.50;;;;;;;5.22;59.37;98208.16;5051157;28;20302;-75
2023/03/27 09:35:24;;;;;;;5.37;1.80;;;;;;;5.30;61.02;98238.31;5052425;28;20255;-77
2023/03/27 09:37:58;;;;;;;4.40;1.43;;;;;;;5.12;61.67;98239.19;5055639;28;20261;-76
2023/03/27 09:40:32;;;;;;;4.97;1.47;;;;;;;5.30;62.72;98248.81;5055981;28;20227;-76
2023/03/27 09:43:07;;;;;;;2.53;1.27;;;;;;;5.64;62.43;98258.56;5056505;28;20594;-77
2023/03/27 09:45:39;;;;;;;3.40;1.37;;;;;;;5.38;59.07;98238.81;5056420;28;20210;-77
2023/03/27 09:48:14;;;;;;;4.60;1.67;;;;;;;5.48;59.11;98247.09;5054561;28;20595;-75
2023/03/27 09:50:46;;;;;;;4.17;1.63;;;;;;;5.61;59.56;98253.47;5054173;28;20228;-77
2023/03/27 09:53:14;;;;;;;3.20;1.40;;;;;;;5.74;59.22;98259.84;5054630;28;20246;-77
2023/03/27 09:55:52;;;;;;;6.13;1.60;;;;;;;5.85;57.17;98247.91;5054547;28;20212;-78
2023/03/27 09:58:30;;;;;;;4.23;1.23;;;;;;;5.81;57.86;98251.59;5054581;28;20287;-78
2023/03/27 10:01:12;;;;;;;2.90;1.30;;;;;;;6.00;59.54;98268.19;5054001;28;20231;-77
2023/03/27 10:03:41;;;;;;;5.10;1.63;;;;;;;6.29;58.26;98262.31;5054726;28;20213;-78
2023/03/27 10:06:09;;;;;;;5.87;1.50;;;;;;;6.19;58.33;98265.47;5054605;28;20207;-77
2023/03/27 10:08:40;;;;;;;3.03;1.33;;;;;;;6.08;58.21;98273.88;5054126;28;20620;-76
2023/03/27 10:11:15;;;;;;;2.80;1.20;;;;;;;6.10;55.41;98239.72;5053784;28;20256;-76
2023/03/27 10:13:46;;;;;;;5.73;1.13;;;;;;;6.00;56.21;98247.19;5053956;28;20215;-77
2023/03/27 10:16:16;;;;;;;3.57;1.40;;;;;;;6.05;57.90;98271.41;5054996;28;20250;-78
2023/03/27 10:18:45;;;;;;;6.60;1.37;;;;;;;6.40;58.76;98275.75;5054487;28;20211;-76
2023/03/27 10:21:18;;;;;;;4.60;1.40;;;;;;;6.51;56.59;98259.44;5053616;28;20254;-77
2023/03/27 10:23:48;;;;;;;2.33;1.33;;;;;;;6.52;55.97;98259.38;5053990;28;20590;-77
2023/03/27 10:26:19;;;;;;;2.90;1.30;;;;;;;6.48;54.15;98239.44;5054075;28;20211;-76
2023/03/27 10:28:48;;;;;;;3.47;1.30;;;;;;;6.58;55.20;98261.69;5053982;28;20244;-77
2023/03/27 10:31:28;;;;;;;3.13;1.10;;;;;;;6.61;54.96;98248.41;5053610;28;20204;-78
2023/03/27 10:33:55;;;;;;;4.57;1.13;;;;;;;6.75;52.78;98238.03;5053914;28;20212;-77
2023/03/27 10:36:23;;;;;;;3.60;1.40;;;;;;;7.05;52.97;98240.81;5053512;28;20212;-77
2023/03/27 10:38:55;;;;;;;5.27;1.20;;;;;;;6.94;51.90;98244.03;5053904;28;20243;-76
2023/03/27 10:41:25;;;;;;;4.10;1.37;;;;;;;6.69;53.00;98240.97;5053428;28;20213;-77
2023/03/27 10:43:53;;;;;;;4.20;1.50;;;;;;;6.71;52.40;98241.75;5053534;28;20690;-77
2023/03/27 10:46:21;;;;;;;3.70;1.60;;;;;;;6.72;53.39;98256.56;5053148;28;20222;-78
2023/03/27 10:48:55;;;;;;;3.60;1.17;;;;;;;6.84;53.58;98252.47;5053444;28;20212;-77
2023/03/27 10:51:31;;;;;;;5.47;1.50;;;;;;;7.01;54.72;98276.91;5053050;28;20211;-76
2023/03/27 10:54:06;;;;;;;2.33;1.30;;;;;;;6.95;54.36;98272.00;5053673;28;20211;-75
2023/03/27 10:56:43;;;;;;;3.63;1.50;;;;;;;6.88;55.59;98281.13;5053243;28;20212;-76
2023/03/27 10:59:16;;;;;;;5.53;1.53;;;;;;;6.71;53.11;98257.50;5052911;28;20274;-76
2023/03/27 11:01:49;;;;;;;3.60;1.27;;;;;;;6.57;52.20;98254.75;5053620;28;20219;-76
2023/03/27 11:04:23;;;;;;;5.23;1.53;;;;;;;6.79;52.56;98262.38;5053406;28;20634;-76
2023/03/27 11:06:56;;;;;;;2.87;1.30;;;;;;;7.17;51.60;98251.53;5053121;28;20236;-76
2023/03/27 11:09:27;;;;;;;4.27;1.40;;;;;;;7.18;50.73;98233.97;5052915;28;20274;-76
2023/03/27 11:11:59;;;;;;;2.10;1.10;;;;;;;7.30;51.71;98260.44;5052903;28;20204;-75
2023/03/27 11:14:31;;;;;;;2.03;1.10;;;;;;;7.38;51.19;98245.09;5053197;28;20237;-75
2023/03/27 11:17:03;;;;;;;3.53;1.37;;;;;;;7.03;50.22;98248.78;5053080;28;20233;-76
2023/03/27 11:19:43;;;;;;;3.37;1.30;;;;;;;6.99;51.10;98273.53;5052618;28;20236;-76
2023/03/27 11:22:14;;;;;;;9.30;1.87;;;;;;;7.13;52.86;98275.41;5052744;28;20239;-76
2023/03/27 11:24:46;;;;;;;2.90;1.20;;;;;;;7.30;50.94;98252.56;5053103;28;20597;-76
2023/03/27 11:27:19;;;;;;;3.50;1.07;;;;;;;7.15;49.71;98248.13;5053000;28;20314;-76
2023/03/27 11:29:55;;;;;;;3.67;1.30;;;;;;;6.95;49.69;98256.22;5052499;28;20208;-76
2023/03/27 11:32:33;;;;;;;2.50;1.13;;;;;;;6.96;51.06;98278.94;5052898;28;20289;-75
2023/03/27 11:35:05;;;;;;;5.80;1.57;;;;;;;6.87;51.12;98281.19;5052664;28;20306;-76
2023/03/27 11:37:40;;;;;;;2.77;1.00;;;;;;;6.69;50.07;98258.50;5052561;28;20239;-76
2023/03/27 11:40:17;;;;;;;3.37;0.90;;;;;;;6.47;49.79;98261.38;5052306;28;20238;-76
2023/03/27 11:42:46;;;;;;;5.07;1.50;;;;;;;6.51;50.80;98285.72;5052372;28;20622;-75
2023/03/27 11:45:20;;;;;;;2.03;1.30;;;;;;;6.50;54.27;98316.38;5051843;28;20213;-76
2023/03/27 11:48:02;;;;;;;3.90;1.30;;;;;;;6.78;55.52;98332.44;5052167;28;20231;-77
2023/03/27 11:50:36;;;;;;;4.40;1.20;;;;;;;7.18;53.85;98315.44;5051907;28;20208;-76